Time;durP1;ratioP1;P1;durP2;ratioP2;P2;SDS_P1;SDS_P2;PMS_P1;PMS_P2;Temp;Humidity;BMP_temperature;BMP_pressure;BME280_temperature;BME280_humidity;BME280_pressure;Samples;Min_cycle;Max_cycle;Signal;HPM_P1;HPM_P2
2022/03/22 00:00:38;;;;;;;8.23;4.20;;;20.50;65.40;;;;;;7935899;28;20566;-53
2022/03/22 00:04:24;;;;;;;5.07;4.00;;;20.60;65.40;;;;;;7936113;28;20267;-49
2022/03/22 00:08:11;;;;;;;6.72;4.55;;;20.60;65.00;;;;;;7936086;28;20641;-49
2022/03/22 00:11:56;;;;;;;7.03;3.95;;;20.70;64.70;;;;;;7936010;28;20175;-49
2022/03/22 00:15:42;;;;;;;5.60;4.22;;;20.80;64.50;;;;;;7935515;28;20203;-50
2022/03/22 00:19:27;;;;;;;6.60;4.22;;;20.80;64.10;;;;;;7934545;28;20226;-53
2022/03/22 00:23:13;;;;;;;5.65;3.97;;;20.80;63.80;;;;;;7935629;28;20734;-49
2022/03/22 00:26:58;;;;;;;5.63;4.03;;;20.80;63.60;;;;;;7935904;28;20176;-49
2022/03/22 00:30:44;;;;;;;6.10;3.95;;;20.80;63.10;;;;;;7935610;28;20641;-50
2022/03/22 00:34:29;;;;;;;9.73;4.00;;;20.80;63.40;;;;;;7935581;28;20304;-54
2022/03/22 00:38:20;;;;;;;9.13;4.80;;;20.80;63.40;;;;;;7935111;28;20231;-49
2022/03/22 00:42:05;;;;;;;5.82;4.25;;;20.80;62.90;;;;;;7934996;28;20689;-49
2022/03/22 00:45:51;;;;;;;6.75;5.22;;;20.80;63.10;;;;;;7934884;28;20739;-49
2022/03/22 00:49:36;;;;;;;8.20;5.00;;;20.80;62.70;;;;;;7934297;28;20234;-52
2022/03/22 00:53:22;;;;;;;5.75;4.28;;;20.80;62.90;;;;;;7934635;28;20231;-52
2022/03/22 00:57:07;;;;;;;6.22;4.57;;;20.80;63.20;;;;;;7934547;28;20176;-50
2022/03/22 01:00:53;;;;;;;7.32;4.60;;;20.70;62.20;;;;;;7934116;28;20199;-53
2022/03/22 01:04:38;;;;;;;6.80;4.72;;;20.70;62.70;;;;;;7934313;28;20661;-52
2022/03/22 01:08:24;;;;;;;7.55;4.80;;;20.70;62.20;;;;;;7934286;28;20187;-49
2022/03/22 01:12:09;;;;;;;6.60;4.35;;;20.70;62.10;;;;;;7933886;28;20285;-53
2022/03/22 01:15:55;;;;;;;6.45;4.13;;;20.60;62.00;;;;;;7934000;28;20176;-50
2022/03/22 01:19:40;;;;;;;5.75;4.30;;;20.60;62.00;;;;;;7933458;28;20303;-52
2022/03/22 01:23:26;;;;;;;6.57;4.10;;;20.60;62.20;;;;;;7933695;28;20202;-49
2022/03/22 01:27:12;;;;;;;5.95;4.53;;;20.60;62.10;;;;;;7933528;28;20167;-49
2022/03/22 01:30:57;;;;;;;5.13;4.10;;;20.50;62.00;;;;;;7933252;28;20203;-49
2022/03/22 01:34:43;;;;;;;7.13;5.15;;;20.50;62.10;;;;;;7933557;28;20225;-53
2022/03/22 01:38:28;;;;;;;6.25;4.75;;;20.50;61.70;;;;;;7933244;28;20222;-51
2022/03/22 01:42:14;;;;;;;7.03;5.32;;;20.50;61.60;;;;;;7932925;28;20212;-49
2022/03/22 01:46:00;;;;;;;8.07;4.93;;;20.50;61.60;;;;;;7933087;28;20203;-50
2022/03/22 01:49:47;;;;;;;12.05;5.70;;;20.40;61.60;;;;;;7932730;28;20752;-53
2022/03/22 01:53:36;;;;;;;6.30;4.63;;;20.40;61.80;;;;;;7932708;28;20260;-49
2022/03/22 01:57:24;;;;;;;7.97;5.10;;;20.40;61.10;;;;;;7932708;28;20176;-53
2022/03/22 02:09:20;;;;;;;9.48;5.43;;;20.30;61.70;;;;;;7932441;28;20187;-49
2022/03/22 02:13:05;;;;;;;9.05;5.93;;;20.30;60.90;;;;;;7932573;28;20264;-49
2022/03/22 02:16:51;;;;;;;9.07;5.20;;;20.30;60.40;;;;;;7932533;28;20214;-49
2022/03/22 02:20:37;;;;;;;8.80;5.20;;;20.30;61.00;;;;;;7931970;28;20207;-50
2022/03/22 02:24:22;;;;;;;7.35;5.32;;;20.20;61.40;;;;;;7932166;27;20652;-50
2022/03/22 02:28:11;;;;;;;7.82;5.45;;;20.20;60.80;;;;;;7932209;28;20247;-49
2022/03/22 02:31:57;;;;;;;6.78;5.03;;;20.20;61.10;;;;;;7931822;28;20191;-53
2022/03/22 02:35:43;;;;;;;7.75;5.68;;;20.20;61.10;;;;;;7931999;28;20693;-51
2022/03/22 02:39:28;;;;;;;7.18;5.43;;;20.20;60.80;;;;;;7931854;28;20211;-49
2022/03/22 02:43:14;;;;;;;7.07;5.32;;;20.20;60.60;;;;;;7938602;28;20187;-50
2022/03/22 02:46:59;;;;;;;9.52;5.30;;;20.20;61.10;;;;;;7938630;28;20180;-50
2022/03/22 02:50:45;;;;;;;7.82;5.15;;;20.10;60.30;;;;;;7937925;28;20205;-49
2022/03/22 02:54:30;;;;;;;7.25;5.05;;;20.10;60.80;;;;;;7938172;28;20202;-51
2022/03/22 02:58:16;;;;;;;8.05;6.10;;;20.10;60.60;;;;;;7938054;28;20195;-49
2022/03/22 03:02:01;;;;;;;9.05;6.10;;;20.10;60.60;;;;;;7937614;28;20263;-52
2022/03/22 03:05:50;;;;;;;6.68;5.40;;;20.10;60.50;;;;;;7938167;28;20237;-50
2022/03/22 03:09:36;;;;;;;8.93;6.05;;;20.00;60.40;;;;;;7937545;28;20688;-49
2022/03/22 03:13:22;;;;;;;8.02;5.78;;;20.10;60.50;;;;;;7937623;28;20626;-53
2022/03/22 03:17:10;;;;;;;7.50;5.93;;;20.00;60.20;;;;;;7937543;28;20187;-49
2022/03/22 03:20:56;;;;;;;8.25;6.18;;;20.00;60.10;;;;;;7937365;28;20215;-52
2022/03/22 03:24:41;;;;;;;11.10;5.93;;;20.00;60.10;;;;;;7937362;28;20196;-53
2022/03/22 03:28:27;;;;;;;7.88;5.57;;;20.00;60.10;;;;;;7937341;28;20644;-50
2022/03/22 03:32:12;;;;;;;8.30;6.70;;;20.00;60.20;;;;;;7936829;28;20168;-51
2022/03/22 03:35:58;;;;;;;8.05;5.70;;;19.90;60.10;;;;;;7937121;28;20176;-52
2022/03/22 03:39:44;;;;;;;8.73;6.30;;;19.90;60.10;;;;;;7936860;28;20268;-49
2022/03/22 03:43:29;;;;;;;8.68;6.47;;;19.90;60.00;;;;;;7937492;28;20196;-49
2022/03/22 03:47:16;;;;;;;9.18;6.40;;;19.80;60.00;;;;;;7937074;28;20660;-49
2022/03/22 03:51:02;;;;;;;8.68;6.15;;;19.90;60.00;;;;;;7936406;28;20294;-49
2022/03/22 03:54:48;;;;;;;8.48;6.35;;;19.80;60.00;;;;;;7936817;28;20203;-49
2022/03/22 03:58:33;;;;;;;7.95;6.22;;;19.80;60.00;;;;;;7936745;28;20283;-50
2022/03/22 04:02:19;;;;;;;9.18;6.38;;;19.80;60.00;;;;;;7936231;28;20200;-53
2022/03/22 04:06:05;;;;;;;9.48;6.90;;;19.80;60.10;;;;;;7936355;28;20236;-53
2022/03/22 04:09:51;;;;;;;9.57;6.32;;;19.80;60.00;;;;;;7935984;28;20184;-49
2022/03/22 04:13:37;;;;;;;10.75;6.68;;;19.80;59.80;;;;;;7936064;28;20237;-53
2022/03/22 04:17:22;;;;;;;10.90;6.75;;;19.70;59.70;;;;;;7935903;28;20241;-49
2022/03/22 04:21:08;;;;;;;13.73;6.53;;;19.70;59.60;;;;;;7935456;28;20215;-52
2022/03/22 04:24:53;;;;;;;10.48;7.65;;;19.70;59.50;;;;;;7935589;28;20184;-52
2022/03/22 04:32:43;;;;;;;11.02;7.07;;;19.70;59.10;;;;;;7902974;28;20208;-52
2022/03/22 04:36:31;;;;;;;10.57;7.30;;;19.70;59.10;;;;;;7903356;28;20199;-49
2022/03/22 04:40:17;;;;;;;8.82;7.03;;;19.70;59.20;;;;;;7920543;28;20299;-49
2022/03/22 04:44:03;;;;;;;8.77;6.60;;;19.70;59.20;;;;;;7903436;28;20231;-49
2022/03/22 04:47:49;;;;;;;10.40;7.30;;;19.70;59.10;;;;;;7903189;28;20184;-50
2022/03/22 04:59:43;;;;;;;11.38;7.35;;;19.70;58.90;;;;;;7901988;28;20216;-52
2022/03/22 05:03:29;;;;;;;11.25;7.38;;;19.70;58.80;;;;;;7902167;28;20203;-54
2022/03/22 05:07:14;;;;;;;9.98;7.13;;;19.80;58.90;;;;;;7902985;28;20161;-51
2022/03/22 05:11:00;;;;;;;8.65;6.20;;;19.80;59.00;;;;;;7916367;28;20219;-53
2022/03/22 05:14:50;;;;;;;11.77;6.97;;;19.80;59.40;;;;;;7933603;28;20202;-51
2022/03/22 05:18:36;;;;;;;9.35;6.68;;;19.80;60.70;;;;;;7933497;28;20271;-51
2022/03/22 05:22:21;;;;;;;13.90;6.75;;;19.80;59.90;;;;;;7932980;28;20188;-53
2022/03/22 05:26:07;;;;;;;13.48;7.78;;;19.90;60.10;;;;;;7917960;28;20211;-52
2022/03/22 05:29:52;;;;;;;16.75;7.03;;;19.90;59.30;;;;;;7901102;28;20180;-51
2022/03/22 05:33:38;;;;;;;8.88;6.47;;;19.90;59.20;;;;;;7901154;28;20267;-52
2022/03/22 05:37:24;;;;;;;13.73;7.18;;;19.90;59.10;;;;;;7900810;28;20184;-51
2022/03/22 05:41:10;;;;;;;11.65;6.28;;;19.90;59.10;;;;;;7920682;28;20298;-50
2022/03/22 05:44:56;;;;;;;15.63;7.35;;;20.00;59.00;;;;;;7943134;27;20195;-52
2022/03/22 05:48:41;;;;;;;22.15;6.60;;;20.00;59.50;;;;;;7963143;27;20179;-53
2022/03/22 05:52:27;;;;;;;11.50;6.13;;;20.00;59.30;;;;;;7963613;27;20601;-52
2022/03/22 05:56:13;;;;;;;14.10;6.13;;;20.10;59.40;;;;;;7947100;27;20195;-52
2022/03/22 05:59:58;;;;;;;33.58;6.78;;;20.10;59.80;;;;;;7931529;28;20215;-54
2022/03/22 06:03:44;;;;;;;24.02;6.25;;;20.10;60.20;;;;;;7931956;28;20196;-50
2022/03/22 06:07:29;;;;;;;15.45;6.57;;;20.10;60.10;;;;;;7931747;28;20175;-51
2022/03/22 06:11:15;;;;;;;17.98;6.57;;;20.20;59.60;;;;;;7914707;28;20207;-52
2022/03/22 06:15:16;;;;;;;14.68;6.68;;;20.20;59.50;;;;;;7900254;28;20283;-52
2022/03/22 06:19:01;;;;;;;19.45;6.88;;;20.20;59.30;;;;;;7900657;28;20196;-49
2022/03/22 06:22:48;;;;;;;13.55;6.78;;;20.20;59.20;;;;;;7899926;28;20678;-52
2022/03/22 06:26:33;;;;;;;10.43;6.47;;;20.30;59.20;;;;;;7919354;28;20180;-53
2022/03/22 06:30:20;;;;;;;14.82;7.00;;;20.30;59.70;;;;;;7930968;28;20204;-52
2022/03/22 06:34:05;;;;;;;17.95;6.97;;;20.30;59.60;;;;;;7931308;28;20199;-51
2022/03/22 06:37:51;;;;;;;22.15;6.22;;;20.30;59.90;;;;;;7931040;28;20215;-51
2022/03/22 06:41:37;;;;;;;14.57;6.03;;;20.30;59.40;;;;;;7910472;28;20187;-52
2022/03/22 06:45:22;;;;;;;20.73;6.82;;;20.40;60.00;;;;;;7899239;28;20220;-53
2022/03/22 06:49:08;;;;;;;12.88;6.70;;;20.30;59.40;;;;;;7899311;28;20217;-52
2022/03/22 06:52:54;;;;;;;10.05;6.28;;;20.30;58.70;;;;;;7899528;28;20200;-52
2022/03/22 06:56:39;;;;;;;10.15;6.57;;;20.30;58.60;;;;;;7920293;28;20186;-50
2022/03/22 07:00:27;;;;;;;13.35;7.05;;;20.40;59.40;;;;;;7919868;28;20682;-51
2022/03/22 07:04:13;;;;;;;15.23;6.47;;;20.40;58.60;;;;;;7898859;28;20196;-52
2022/03/22 07:07:59;;;;;;;18.25;6.32;;;20.30;59.30;;;;;;7899331;28;20176;-52
2022/03/22 07:11:49;;;;;;;21.23;6.43;;;20.40;59.30;;;;;;7921553;28;20797;-55
2022/03/22 07:15:37;;;;;;;12.95;6.07;;;20.40;60.10;;;;;;7930430;28;20257;-49
2022/03/22 07:19:23;;;;;;;14.10;6.30;;;20.40;59.60;;;;;;7930007;28;20413;-51
2022/03/22 07:23:08;;;;;;;21.65;6.30;;;20.40;59.30;;;;;;7930536;28;20188;-49
2022/03/22 07:26:54;;;;;;;11.30;6.70;;;20.40;59.30;;;;;;7908643;28;20220;-50
2022/03/22 07:30:40;;;;;;;11.52;6.30;;;20.40;59.30;;;;;;7904709;28;20180;-51
2022/03/22 07:34:27;;;;;;;20.15;6.25;;;20.40;59.30;;;;;;7904672;28;20559;-53
2022/03/22 07:38:12;;;;;;;12.75;6.32;;;20.50;59.50;;;;;;7904158;28;20736;-52
2022/03/22 07:41:58;;;;;;;15.18;6.70;;;20.50;59.60;;;;;;7904313;28;20553;-52
2022/03/22 07:45:44;;;;;;;9.25;6.63;;;20.50;59.60;;;;;;7903910;28;20205;-50
2022/03/22 07:53:34;;;;;;;13.23;6.03;;;20.50;60.10;;;;;;7904940;28;20677;-53
2022/03/22 07:57:19;;;;;;;9.55;5.95;;;20.50;59.70;;;;;;7932061;28;20738;-51
2022/03/22 08:01:05;;;;;;;12.95;6.30;;;20.50;59.80;;;;;;7935367;28;20226;-50
2022/03/22 08:04:50;;;;;;;14.30;5.35;;;20.50;60.20;;;;;;7935277;28;20203;-50
2022/03/22 08:08:37;;;;;;;10.82;6.03;;;20.50;60.20;;;;;;7911303;28;20638;-51
2022/03/22 08:12:23;;;;;;;12.18;5.72;;;20.60;60.00;;;;;;7930677;28;20260;-50
2022/03/22 08:16:08;;;;;;;15.20;5.95;;;20.60;60.00;;;;;;7935176;28;20176;-52
2022/03/22 08:19:54;;;;;;;10.20;5.85;;;20.60;59.80;;;;;;7934672;28;20665;-49
2022/03/22 08:23:39;;;;;;;7.07;5.28;;;20.60;59.80;;;;;;7916289;28;20207;-52
2022/03/22 08:27:25;;;;;;;9.00;5.85;;;20.60;59.70;;;;;;7907480;28;20662;-49
2022/03/22 08:31:13;;;;;;;9.57;5.47;;;20.60;59.80;;;;;;7919091;28;20646;-51
2022/03/22 08:34:59;;;;;;;9.85;5.72;;;20.60;59.90;;;;;;7902756;28;20197;-50
2022/03/22 08:38:44;;;;;;;10.25;5.60;;;20.60;60.00;;;;;;7901980;28;20215;-52
2022/03/22 08:42:30;;;;;;;10.90;5.30;;;20.60;59.80;;;;;;7932782;28;20203;-51
2022/03/22 08:46:16;;;;;;;8.48;5.30;;;20.60;59.90;;;;;;7934030;28;20176;-52
2022/03/22 08:50:05;;;;;;;12.15;5.70;;;20.60;59.90;;;;;;7933672;28;20223;-50
2022/03/22 08:53:53;;;;;;;13.60;5.15;;;20.70;60.00;;;;;;7933746;28;20234;-50
2022/03/22 08:57:42;;;;;;;12.38;5.55;;;20.70;61.40;;;;;;7902129;28;20226;-51
2022/03/22 09:01:28;;;;;;;12.20;5.47;;;20.70;60.60;;;;;;7915469;28;20771;-54
2022/03/22 09:09:18;;;;;;;9.75;5.25;;;20.70;60.00;;;;;;7930073;28;20216;-52
2022/03/22 09:13:05;;;;;;;8.23;5.30;;;20.70;60.00;;;;;;7901765;28;20211;-50
2022/03/22 09:16:52;;;;;;;8.63;5.47;;;20.70;60.00;;;;;;7901475;28;20253;-54
2022/03/22 09:20:37;;;;;;;8.25;5.70;;;20.70;60.10;;;;;;7898665;28;20690;-52
2022/03/22 09:24:23;;;;;;;7.32;5.32;;;20.70;60.20;;;;;;7906102;28;20196;-49
2022/03/22 09:28:09;;;;;;;7.53;5.30;;;20.70;60.20;;;;;;7932903;28;20176;-52
2022/03/22 09:31:55;;;;;;;9.80;4.75;;;20.80;60.40;;;;;;7932716;28;20637;-52
2022/03/22 09:35:40;;;;;;;11.63;5.20;;;20.70;60.30;;;;;;7932550;28;20192;-53
2022/03/22 09:39:26;;;;;;;12.75;5.47;;;20.80;60.30;;;;;;7926626;28;20212;-54
2022/03/22 09:43:12;;;;;;;14.65;5.30;;;20.70;60.80;;;;;;7900720;28;20242;-54
2022/03/22 09:46:57;;;;;;;12.20;5.25;;;20.80;61.50;;;;;;7900487;28;20179;-53
2022/03/22 09:54:48;;;;;;;21.00;5.55;;;20.80;61.50;;;;;;7909105;28;20211;-52
2022/03/22 09:58:34;;;;;;;25.08;6.38;;;20.80;61.40;;;;;;7931920;28;20673;-52
2022/03/22 10:02:27;;;;;;;24.80;6.18;;;20.80;61.50;;;;;;7930062;28;20282;-54
2022/03/22 10:06:12;;;;;;;31.83;6.25;;;20.80;61.20;;;;;;7931616;28;20780;-52
2022/03/22 10:10:02;;;;;;;29.55;6.60;;;20.70;61.10;;;;;;7920984;28;20207;-50
2022/03/22 10:13:55;;;;;;;253.13;18.92;;;20.80;61.20;;;;;;7900456;28;20200;-51
2022/03/22 10:17:43;;;;;;;147.07;12.68;;;20.80;61.40;;;;;;7900182;28;20191;-49
2022/03/22 10:21:29;;;;;;;94.85;9.80;;;20.80;61.20;;;;;;7896765;28;20626;-50
2022/03/22 10:25:16;;;;;;;80.40;8.95;;;20.80;61.50;;;;;;7900061;28;20318;-51
2022/03/22 10:29:01;;;;;;;62.03;8.35;;;20.80;61.50;;;;;;7899964;28;20188;-49
2022/03/22 10:32:51;;;;;;;50.35;7.20;;;20.80;62.00;;;;;;7899582;28;20201;-52
2022/03/22 10:36:38;;;;;;;38.75;6.75;;;20.80;61.80;;;;;;7899545;28;20252;-52
2022/03/22 10:40:36;;;;;;;27.85;6.00;;;20.80;61.60;;;;;;7913889;28;20211;-50
2022/03/22 10:44:23;;;;;;;24.02;5.85;;;20.80;61.50;;;;;;7930900;28;20613;-51
2022/03/22 10:48:09;;;;;;;28.70;6.47;;;20.80;61.50;;;;;;7931080;28;20324;-51
2022/03/22 10:51:56;;;;;;;30.80;6.03;;;20.80;61.30;;;;;;7924396;28;20201;-52
2022/03/22 10:55:43;;;;;;;33.15;6.43;;;20.80;61.20;;;;;;7916760;28;20821;-52
2022/03/22 10:59:29;;;;;;;25.75;5.82;;;20.80;61.80;;;;;;7930318;28;20202;-51
2022/03/22 11:03:17;;;;;;;26.90;6.10;;;20.80;61.60;;;;;;7910296;28;20295;-52
2022/03/22 11:07:04;;;;;;;42.50;6.25;;;20.80;61.70;;;;;;7905783;28;20173;-50
2022/03/22 11:10:51;;;;;;;32.92;6.00;;;20.80;62.10;;;;;;7923997;28;20183;-51
2022/03/22 11:14:37;;;;;;;28.40;6.38;;;20.80;62.00;;;;;;7936923;27;20272;-52
2022/03/22 11:18:25;;;;;;;26.05;7.55;;;20.80;61.80;;;;;;7936768;28;20306;-55
2022/03/22 11:22:11;;;;;;;28.55;8.98;;;20.80;61.50;;;;;;7933447;28;20184;-52
2022/03/22 11:26:17;;;;;;;31.73;10.18;;;20.80;61.40;;;;;;7916270;28;20184;-52
2022/03/22 11:30:07;;;;;;;41.22;11.30;;;20.80;61.30;;;;;;7904910;28;20169;-52
2022/03/22 11:34:12;;;;;;;48.80;14.98;;;20.80;61.30;;;;;;7904689;28;20609;-52
2022/03/22 11:38:01;;;;;;;43.63;12.57;;;20.80;61.20;;;;;;7904423;28;20181;-51
2022/03/22 11:45:52;;;;;;;55.38;13.80;;;20.80;62.40;;;;;;7904230;28;20172;-52
2022/03/22 11:50:00;;;;;;;44.60;13.05;;;20.80;61.20;;;;;;7903930;28;20261;-52
2022/03/22 11:53:46;;;;;;;46.88;12.73;;;20.80;61.30;;;;;;7906548;28;20729;-54
2022/03/22 11:57:46;;;;;;;35.50;11.52;;;20.80;61.20;;;;;;7935023;28;20547;-55
2022/03/22 12:01:36;;;;;;;40.08;12.65;;;20.80;61.20;;;;;;7901878;28;20253;-53
2022/03/22 12:05:23;;;;;;;30.55;10.48;;;20.80;61.20;;;;;;7903839;28;20207;-51
2022/03/22 12:09:09;;;;;;;35.20;11.20;;;20.70;61.10;;;;;;7909789;28;20191;-50
2022/03/22 12:12:55;;;;;;;28.17;9.52;;;20.80;62.20;;;;;;7927819;28;20254;-53
2022/03/22 12:16:51;;;;;;;34.78;9.38;;;20.80;61.50;;;;;;7903786;28;20263;-54
2022/03/22 12:20:37;;;;;;;38.53;10.35;;;20.80;62.00;;;;;;7903093;28;20207;-52
2022/03/22 12:24:24;;;;;;;31.13;9.00;;;20.80;62.30;;;;;;7911160;28;20211;-52
2022/03/22 12:28:10;;;;;;;32.00;8.57;;;20.80;62.50;;;;;;7922721;28;20189;-52
2022/03/22 12:31:56;;;;;;;29.40;9.02;;;20.80;62.10;;;;;;7902794;28;20260;-52
2022/03/22 12:35:43;;;;;;;22.92;8.35;;;20.90;63.20;;;;;;7902534;28;20197;-51
2022/03/22 12:39:29;;;;;;;31.23;8.23;;;20.80;63.50;;;;;;7911470;28;20215;-51
2022/03/22 12:43:19;;;;;;;17.70;7.28;;;20.80;63.10;;;;;;7934135;28;20680;-52
2022/03/22 12:47:06;;;;;;;19.13;7.22;;;20.90;64.50;;;;;;7934310;27;20255;-52
2022/03/22 12:50:52;;;;;;;24.90;7.45;;;20.90;64.30;;;;;;7933445;28;20187;-52
2022/03/22 12:54:42;;;;;;;17.80;6.82;;;20.90;64.70;;;;;;7923039;28;20265;-50
2022/03/22 12:58:28;;;;;;;21.80;6.55;;;20.90;64.20;;;;;;7902075;28;20208;-51
2022/03/22 13:02:14;;;;;;;18.85;6.53;;;20.90;64.30;;;;;;7901142;28;20226;-52
2022/03/22 13:05:59;;;;;;;18.20;6.47;;;21.00;65.00;;;;;;7901907;28;20597;-56
2022/03/22 13:17:54;;;;;;;18.55;6.70;;;21.00;66.40;;;;;;7932569;28;20180;-52
2022/03/22 13:21:40;;;;;;;18.40;6.15;;;21.00;66.60;;;;;;7930033;28;20677;-51
2022/03/22 13:25:35;;;;;;;20.23;5.97;;;21.00;66.10;;;;;;7914099;28;20216;-52
2022/03/22 13:29:21;;;;;;;15.25;5.63;;;21.00;66.60;;;;;;7912947;28;20175;-50
2022/03/22 13:33:13;;;;;;;16.25;6.55;;;21.00;66.60;;;;;;7900838;28;20208;-52
2022/03/22 13:37:14;;;;;;;13.18;5.38;;;21.00;67.00;;;;;;7900785;28;20183;-51
2022/03/22 13:41:03;;;;;;;14.88;5.57;;;21.00;67.20;;;;;;7923557;28;20238;-51
2022/03/22 13:44:57;;;;;;;14.88;5.75;;;21.00;67.00;;;;;;7932401;28;20191;-52
2022/03/22 13:48:53;;;;;;;14.90;5.53;;;21.00;67.50;;;;;;7931983;28;20267;-51
2022/03/22 13:52:39;;;;;;;14.23;5.25;;;21.00;67.60;;;;;;7931829;28;20191;-51
2022/03/22 13:56:25;;;;;;;16.75;5.97;;;21.00;67.50;;;;;;7904794;28;20689;-57
2022/03/22 14:00:12;;;;;;;15.55;5.28;;;21.00;67.50;;;;;;7900126;28;20560;-53
2022/03/22 14:03:58;;;;;;;17.80;5.90;;;21.00;67.00;;;;;;7899935;28;20294;-55
2022/03/22 14:07:55;;;;;;;12.38;5.20;;;21.00;67.50;;;;;;7900193;28;20243;-52
2022/03/22 14:11:43;;;;;;;20.80;5.97;;;21.00;67.50;;;;;;7910105;28;20728;-52
2022/03/22 14:15:29;;;;;;;18.05;5.18;;;21.00;66.90;;;;;;7931039;28;20550;-52
2022/03/22 14:19:15;;;;;;;17.80;5.70;;;21.00;67.40;;;;;;7931842;28;20195;-54
2022/03/22 14:23:01;;;;;;;18.70;4.97;;;21.00;67.50;;;;;;7932326;28;20203;-51
2022/03/22 14:26:47;;;;;;;25.20;5.50;;;21.00;67.10;;;;;;7932240;28;20657;-55
2022/03/22 14:30:35;;;;;;;15.77;5.18;;;21.00;67.00;;;;;;7931737;28;20726;-52
2022/03/22 14:38:27;;;;;;;11.30;5.05;;;21.00;66.00;;;;;;7931276;28;20649;-52
2022/03/22 14:42:13;;;;;;;10.40;4.70;;;21.00;66.40;;;;;;7931656;28;20247;-57
2022/03/22 14:45:59;;;;;;;23.85;5.05;;;21.00;66.60;;;;;;7931974;28;20171;-52
2022/03/22 14:49:44;;;;;;;15.93;5.13;;;21.00;64.40;;;;;;7922459;28;20237;-53
2022/03/22 15:01:38;;;;;;;16.90;5.05;;;20.90;63.80;;;;;;7900106;28;20409;-53
2022/03/22 15:05:39;;;;;;;16.02;5.28;;;20.90;63.40;;;;;;7905776;28;20203;-51
2022/03/22 15:09:25;;;;;;;16.73;5.30;;;20.90;63.40;;;;;;7900434;28;20188;-53
2022/03/22 15:13:11;;;;;;;9.48;4.78;;;20.90;63.40;;;;;;7900324;28;20265;-55
2022/03/22 15:16:56;;;;;;;9.07;4.97;;;20.80;63.40;;;;;;7900261;28;20320;-53
2022/03/22 15:20:44;;;;;;;12.20;4.95;;;20.80;63.30;;;;;;7899302;28;20295;-52
2022/03/22 15:24:30;;;;;;;15.02;5.50;;;20.80;63.40;;;;;;7900482;28;20199;-50
2022/03/22 15:28:19;;;;;;;10.70;4.65;;;20.80;63.20;;;;;;7911096;28;20208;-55
2022/03/22 15:32:05;;;;;;;11.57;5.15;;;20.80;63.00;;;;;;7915558;28;20165;-52
2022/03/22 15:35:51;;;;;;;12.05;5.80;;;20.80;63.10;;;;;;7913288;28;20229;-52
2022/03/22 15:39:36;;;;;;;13.02;4.72;;;20.80;62.70;;;;;;7915388;28;20199;-49
2022/03/22 15:43:22;;;;;;;7.47;4.53;;;20.80;62.70;;;;;;7914702;28;20199;-49
2022/03/22 15:47:08;;;;;;;13.25;4.72;;;20.80;62.80;;;;;;7914695;28;20703;-53
2022/03/22 15:50:53;;;;;;;10.63;5.20;;;20.80;62.70;;;;;;7920488;28;20587;-54
2022/03/22 15:54:39;;;;;;;10.20;4.85;;;20.80;62.70;;;;;;7922183;28;20572;-53
2022/03/22 15:58:25;;;;;;;9.57;4.60;;;20.80;62.60;;;;;;7920281;28;20192;-53
2022/03/22 16:02:10;;;;;;;10.55;4.80;;;20.80;62.60;;;;;;7920613;28;20606;-51
2022/03/22 16:05:56;;;;;;;7.28;4.38;;;20.80;62.60;;;;;;7922050;28;20200;-55
2022/03/22 16:09:41;;;;;;;10.75;4.60;;;20.80;62.60;;;;;;7919054;28;20550;-53
2022/03/22 16:13:27;;;;;;;8.98;4.75;;;20.80;62.60;;;;;;7918145;28;20283;-53
2022/03/22 16:17:14;;;;;;;11.73;4.68;;;20.80;62.70;;;;;;7921442;28;20176;-53
2022/03/22 16:21:01;;;;;;;24.73;5.97;;;20.80;62.70;;;;;;7919214;28;20196;-51
2022/03/22 16:24:46;;;;;;;18.52;5.72;;;20.70;63.10;;;;;;7919738;28;20188;-54
2022/03/22 16:28:32;;;;;;;17.63;5.40;;;20.80;63.40;;;;;;7920958;28;20188;-51
2022/03/22 16:32:17;;;;;;;14.68;5.38;;;20.80;63.20;;;;;;7930135;28;20184;-52
2022/03/22 16:40:08;;;;;;;15.90;5.07;;;20.80;62.90;;;;;;7935062;28;20579;-53
2022/03/22 16:43:54;;;;;;;16.33;6.57;;;20.80;62.60;;;;;;7935040;28;20215;-52
2022/03/22 16:47:39;;;;;;;16.52;4.80;;;20.70;62.50;;;;;;7922194;28;20526;-50
2022/03/22 16:51:27;;;;;;;9.75;4.65;;;20.70;62.50;;;;;;7919360;28;20602;-49
2022/03/22 16:55:12;;;;;;;10.60;5.50;;;20.70;62.50;;;;;;7919874;28;20203;-50
2022/03/22 16:58:58;;;;;;;11.98;4.90;;;20.70;62.40;;;;;;7918703;28;20721;-49
2022/03/22 17:02:45;;;;;;;10.20;4.95;;;20.70;62.50;;;;;;7918089;28;20242;-50
2022/03/22 17:06:31;;;;;;;10.40;5.10;;;20.70;62.40;;;;;;7917508;28;20168;-51
2022/03/22 17:10:16;;;;;;;9.55;5.10;;;20.70;62.50;;;;;;7917509;28;20176;-52
2022/03/22 17:14:02;;;;;;;7.18;4.40;;;20.70;62.40;;;;;;7917118;28;20218;-49
2022/03/22 17:17:48;;;;;;;12.68;5.38;;;20.70;62.20;;;;;;7916373;28;20211;-52
2022/03/22 17:21:35;;;;;;;11.35;4.93;;;20.70;62.50;;;;;;7917582;28;20702;-49
2022/03/22 17:25:21;;;;;;;21.58;5.60;;;20.70;62.20;;;;;;7916336;28;20290;-52
2022/03/22 17:29:07;;;;;;;15.65;4.90;;;20.70;62.50;;;;;;7918216;28;20233;-52
2022/03/22 17:32:53;;;;;;;15.02;5.53;;;20.70;62.70;;;;;;7912456;28;20668;-52
2022/03/22 17:36:39;;;;;;;12.40;5.13;;;20.70;62.50;;;;;;7907522;28;20198;-49
2022/03/22 17:40:24;;;;;;;11.90;4.85;;;20.70;62.50;;;;;;7932615;28;20615;-49
2022/03/22 17:44:10;;;;;;;13.90;5.15;;;20.70;62.30;;;;;;7932872;28;20203;-51
2022/03/22 17:47:56;;;;;;;16.80;6.45;;;20.70;62.00;;;;;;7933161;28;20172;-49
2022/03/22 17:51:41;;;;;;;12.43;5.07;;;20.70;62.20;;;;;;7932576;28;20184;-51
2022/03/22 17:55:27;;;;;;;13.80;4.78;;;20.70;62.00;;;;;;7933041;28;20207;-49
2022/03/22 17:59:12;;;;;;;17.67;4.85;;;20.70;62.00;;;;;;7932428;28;20631;-50
2022/03/22 18:02:58;;;;;;;7.13;4.50;;;20.70;62.00;;;;;;7934280;28;20724;-53
2022/03/22 18:06:44;;;;;;;22.25;5.95;;;20.60;61.80;;;;;;7932668;28;20172;-50
2022/03/22 18:10:30;;;;;;;23.45;5.57;;;20.70;62.50;;;;;;7931836;28;20184;-50
2022/03/22 18:14:19;;;;;;;28.20;5.35;;;20.70;62.50;;;;;;7932489;28;20722;-51
2022/03/22 18:18:05;;;;;;;39.08;5.47;;;20.70;62.30;;;;;;7932508;28;20203;-52
2022/03/22 18:21:50;;;;;;;20.65;5.25;;;20.70;62.20;;;;;;7932303;28;20196;-49
2022/03/22 18:25:36;;;;;;;31.20;6.15;;;20.70;62.20;;;;;;7932203;28;20194;-51
2022/03/22 18:29:22;;;;;;;27.48;5.35;;;20.70;62.20;;;;;;7931760;28;20211;-52
2022/03/22 18:33:08;;;;;;;19.20;5.07;;;20.70;62.20;;;;;;7926635;28;20294;-49
2022/03/22 18:36:53;;;;;;;16.88;5.03;;;20.70;62.30;;;;;;7902504;28;20214;-49
2022/03/22 18:40:39;;;;;;;32.85;5.28;;;20.60;62.00;;;;;;7931737;28;20212;-49
2022/03/22 18:44:25;;;;;;;14.50;5.55;;;20.60;61.70;;;;;;7931967;28;20267;-51
2022/03/22 18:48:11;;;;;;;11.10;4.80;;;20.60;61.90;;;;;;7932066;28;20176;-49
2022/03/22 18:52:05;;;;;;;17.33;5.03;;;20.60;61.90;;;;;;7931418;28;20215;-52
2022/03/22 18:55:51;;;;;;;9.57;4.63;;;20.60;62.10;;;;;;7931967;28;20175;-50
2022/03/22 18:59:36;;;;;;;9.55;4.70;;;20.60;62.10;;;;;;7931703;28;20200;-49
2022/03/22 19:03:22;;;;;;;12.57;5.30;;;20.60;62.20;;;;;;7931116;28;20245;-52
2022/03/22 19:07:08;;;;;;;18.25;5.80;;;20.60;62.50;;;;;;7931817;28;20179;-53
2022/03/22 19:10:53;;;;;;;10.23;4.68;;;20.60;62.50;;;;;;7931470;28;20195;-53
2022/03/22 19:14:39;;;;;;;9.10;5.30;;;20.60;62.50;;;;;;7931967;28;20196;-55
2022/03/22 19:18:24;;;;;;;10.90;5.20;;;20.60;62.40;;;;;;7931811;28;20641;-53
2022/03/22 19:22:10;;;;;;;10.07;4.88;;;20.60;62.50;;;;;;7932379;28;20251;-53
2022/03/22 19:25:55;;;;;;;11.98;5.30;;;20.60;62.40;;;;;;7937470;28;20220;-53
2022/03/22 19:29:41;;;;;;;9.68;5.13;;;20.60;62.40;;;;;;7936750;28;20653;-52
2022/03/22 19:33:27;;;;;;;10.55;5.03;;;20.50;62.50;;;;;;7937070;28;20203;-54
2022/03/22 19:37:14;;;;;;;15.55;5.55;;;20.50;62.50;;;;;;7931622;28;20191;-52
2022/03/22 19:41:00;;;;;;;13.00;4.60;;;20.50;62.80;;;;;;7912511;28;20204;-55
2022/03/22 19:44:45;;;;;;;12.63;5.43;;;20.50;62.80;;;;;;7934101;28;20230;-52
2022/03/22 19:48:31;;;;;;;11.25;5.90;;;20.50;62.80;;;;;;7933380;28;20184;-51
2022/03/22 19:52:17;;;;;;;8.75;5.13;;;20.50;63.00;;;;;;7935047;28;20266;-53
2022/03/22 19:56:05;;;;;;;11.75;5.60;;;20.50;63.00;;;;;;7913432;28;20675;-51
2022/03/22 19:59:51;;;;;;;9.95;4.82;;;20.50;63.00;;;;;;7934866;28;20222;-53
2022/03/22 20:03:36;;;;;;;12.73;5.10;;;20.50;63.10;;;;;;7935514;28;20188;-52
2022/03/22 20:07:24;;;;;;;9.82;5.13;;;20.50;63.10;;;;;;7935309;27;20176;-54
2022/03/22 20:11:11;;;;;;;11.10;5.32;;;20.40;63.10;;;;;;7934234;28;20187;-55
2022/03/22 20:14:57;;;;;;;8.27;4.90;;;20.40;63.20;;;;;;7934991;28;20750;-52
2022/03/22 20:18:42;;;;;;;7.80;4.68;;;20.40;63.20;;;;;;7934857;28;20560;-52
2022/03/22 20:22:28;;;;;;;6.90;4.43;;;20.40;63.30;;;;;;7934688;28;20689;-53
2022/03/22 20:26:13;;;;;;;13.88;4.50;;;20.40;63.40;;;;;;7935116;28;20172;-50
2022/03/22 20:29:59;;;;;;;10.50;4.85;;;20.40;63.60;;;;;;7934097;28;20184;-51